Time;durP1;ratioP1;P1;durP2;ratioP2;P2;SDS_P1;SDS_P2;PMS_P1;PMS_P2;Temp;Humidity;BMP_temperature;BMP_pressure;BME280_temperature;BME280_humidity;BME280_pressure;Samples;Min_cycle;Max_cycle;Signal;HPM_P1;HPM_P2
2020/12/19 00:02:06;;;;;;;11.07;6.50;;;7.50;1.00;;;;;;4954589;28;20289;-74
2020/12/19 00:04:32;;;;;;;8.80;6.87;;;7.50;1.00;;;;;;4959117;28;20190;-74
2020/12/19 00:06:58;;;;;;;7.87;5.87;;;7.50;1.00;;;;;;4964078;28;20451;-74
2020/12/19 00:09:24;;;;;;;9.20;6.80;;;7.40;1.00;;;;;;4961032;28;20686;-72
2020/12/19 00:11:51;;;;;;;10.73;7.07;;;7.40;1.00;;;;;;4948560;28;20229;-72
2020/12/19 00:14:18;;;;;;;9.97;7.20;;;7.40;1.00;;;;;;4947987;28;20464;-72
2020/12/19 00:16:44;;;;;;;10.23;7.20;;;7.50;1.00;;;;;;4960460;28;20527;-72
2020/12/19 00:19:10;;;;;;;10.47;5.80;;;7.60;1.00;;;;;;4967374;28;20907;-72
2020/12/19 00:21:36;;;;;;;7.57;5.57;;;7.50;1.00;;;;;;4968090;28;20455;-72
2020/12/19 00:24:04;;;;;;;9.07;6.50;;;7.50;1.00;;;;;;4971353;28;20185;-72
2020/12/19 00:26:38;;;;;;;10.80;6.10;;;7.50;1.00;;;;;;4968803;28;20660;-72
2020/12/19 00:29:06;;;;;;;6.97;5.17;;;7.40;1.00;;;;;;4955490;28;20471;-73
2020/12/19 00:31:32;;;;;;;9.77;6.83;;;7.60;1.00;;;;;;4956183;28;20467;-72
2020/12/19 00:33:58;;;;;;;6.60;5.30;;;7.50;1.00;;;;;;4947285;28;20547;-72
2020/12/19 00:36:23;;;;;;;9.60;6.37;;;7.60;1.00;;;;;;4950737;28;20477;-74
2020/12/19 00:38:49;;;;;;;9.20;5.83;;;7.60;1.00;;;;;;4952481;28;21070;-74
2020/12/19 00:41:26;;;;;;;9.97;6.17;;;7.60;1.00;;;;;;4953550;28;20196;-72
2020/12/19 00:43:52;;;;;;;9.23;6.50;;;7.50;1.00;;;;;;4955631;28;20782;-72
2020/12/19 00:46:18;;;;;;;8.93;5.60;;;7.60;1.00;;;;;;4968548;28;20547;-72
2020/12/19 00:48:45;;;;;;;8.10;5.40;;;7.60;1.00;;;;;;4961757;28;20518;-72
2020/12/19 00:51:19;;;;;;;6.77;5.87;;;7.70;1.00;;;;;;4958253;28;20543;-72
2020/12/19 00:53:49;;;;;;;8.50;5.77;;;7.70;1.00;;;;;;4944159;28;20462;-72
2020/12/19 00:56:33;;;;;;;6.97;5.30;;;7.70;1.00;;;;;;4956560;28;20436;-72
2020/12/19 00:58:59;;;;;;;9.37;6.10;;;7.70;1.00;;;;;;4957466;28;20452;-72
2020/12/19 01:01:28;;;;;;;8.23;6.17;;;7.70;1.00;;;;;;4953092;28;21009;-72
2020/12/19 01:03:56;;;;;;;8.60;5.00;;;7.70;1.00;;;;;;4950254;28;20272;-72
2020/12/19 01:06:23;;;;;;;8.80;6.27;;;7.60;1.00;;;;;;4956128;28;20447;-72
2020/12/19 01:08:52;;;;;;;7.90;6.13;;;7.70;1.00;;;;;;4961580;28;21068;-72
2020/12/19 01:11:20;;;;;;;8.10;6.17;;;7.70;1.00;;;;;;4954089;28;20463;-71
2020/12/19 01:13:46;;;;;;;9.10;7.10;;;7.70;1.00;;;;;;4946786;28;20473;-72
2020/12/19 01:16:16;;;;;;;10.00;6.30;;;7.80;1.00;;;;;;4964084;28;20464;-71
2020/12/19 01:18:43;;;;;;;9.43;7.17;;;7.80;1.00;;;;;;4938844;28;21139;-72
2020/12/19 01:21:18;;;;;;;7.23;5.30;;;7.80;1.00;;;;;;4956285;28;20488;-72
2020/12/19 01:23:46;;;;;;;10.33;6.60;;;7.80;1.00;;;;;;4953903;28;20447;-72
2020/12/19 01:26:12;;;;;;;11.43;6.90;;;7.70;1.00;;;;;;4960156;28;20861;-71
2020/12/19 01:28:38;;;;;;;10.37;6.73;;;7.70;1.00;;;;;;4961435;28;21069;-71
2020/12/19 01:31:06;;;;;;;8.13;6.03;;;7.70;1.00;;;;;;4963906;28;20627;-72
2020/12/19 01:33:33;;;;;;;11.13;7.10;;;7.70;1.00;;;;;;4965325;28;20463;-72
2020/12/19 01:35:59;;;;;;;8.60;6.43;;;7.70;1.00;;;;;;4952457;28;20588;-71
2020/12/19 01:38:24;;;;;;;9.07;6.87;;;7.60;1.00;;;;;;4960097;28;20437;-72
2020/12/19 01:40:52;;;;;;;10.03;6.73;;;7.50;1.00;;;;;;4974256;28;20837;-72
2020/12/19 01:43:18;;;;;;;11.90;7.13;;;7.50;1.00;;;;;;4966999;28;20802;-72
2020/12/19 01:45:44;;;;;;;8.13;6.93;;;7.50;1.00;;;;;;4965374;28;20454;-72
2020/12/19 01:48:23;;;;;;;9.23;6.23;;;7.60;1.00;;;;;;4965656;28;20957;-72
2020/12/19 01:50:51;;;;;;;9.33;6.90;;;7.50;1.00;;;;;;4968099;28;20196;-72
2020/12/19 01:53:18;;;;;;;11.10;7.57;;;7.50;1.00;;;;;;4970387;28;20535;-72
2020/12/19 01:55:45;;;;;;;8.37;6.30;;;7.60;1.00;;;;;;4961223;28;20471;-72
2020/12/19 01:58:11;;;;;;;8.40;6.50;;;7.60;1.00;;;;;;4970310;28;20453;-72
2020/12/19 02:00:39;;;;;;;9.50;6.30;;;7.70;1.00;;;;;;4959396;28;21013;-72
2020/12/19 02:03:05;;;;;;;9.77;7.27;;;7.70;1.00;;;;;;4963318;28;20523;-72
2020/12/19 02:05:33;;;;;;;10.23;7.30;;;7.70;1.00;;;;;;4957573;28;20525;-71
2020/12/19 02:08:00;;;;;;;10.93;7.33;;;7.60;1.00;;;;;;4953101;28;20877;-72
2020/12/19 02:10:26;;;;;;;9.30;6.90;;;7.70;1.00;;;;;;4957958;28;20476;-72
2020/12/19 02:12:52;;;;;;;14.63;7.27;;;7.70;1.00;;;;;;4955092;28;20453;-73
2020/12/19 02:15:17;;;;;;;10.20;7.83;;;7.70;1.00;;;;;;4957591;28;20460;-72
2020/12/19 02:17:43;;;;;;;11.83;8.07;;;7.60;1.00;;;;;;4956670;28;20202;-72
2020/12/19 02:20:10;;;;;;;10.37;7.50;;;7.50;1.00;;;;;;4958896;28;20327;-72
2020/12/19 02:22:36;;;;;;;9.77;7.33;;;7.50;1.00;;;;;;4955755;28;20966;-72
2020/12/19 02:25:02;;;;;;;10.43;7.90;;;7.50;1.00;;;;;;4957220;28;20776;-72
2020/12/19 02:27:28;;;;;;;9.27;7.57;;;7.50;1.00;;;;;;4961181;28;20506;-73
2020/12/19 02:29:53;;;;;;;9.57;7.20;;;7.40;1.00;;;;;;4962629;28;20252;-72
2020/12/19 02:32:19;;;;;;;11.50;8.07;;;7.40;1.00;;;;;;4957011;28;20201;-71
2020/12/19 02:34:45;;;;;;;11.10;7.93;;;7.60;1.00;;;;;;4949456;28;20212;-72
2020/12/19 02:37:10;;;;;;;11.33;7.60;;;7.60;1.00;;;;;;4958525;28;20189;-72
2020/12/19 02:39:36;;;;;;;15.73;8.03;;;7.60;1.00;;;;;;4965597;28;20186;-72
2020/12/19 02:42:01;;;;;;;9.13;6.47;;;7.70;1.00;;;;;;4974397;28;20223;-72
2020/12/19 02:44:27;;;;;;;9.20;6.93;;;7.60;1.00;;;;;;4972413;28;20746;-72
2020/12/19 02:46:53;;;;;;;11.00;7.53;;;7.50;1.00;;;;;;4968931;28;20551;-72
2020/12/19 02:49:18;;;;;;;9.90;7.50;;;7.70;1.00;;;;;;4950474;28;20221;-72
2020/12/19 02:51:44;;;;;;;10.00;7.00;;;7.70;1.00;;;;;;4951029;28;20591;-72
2020/12/19 02:54:10;;;;;;;9.77;7.07;;;7.60;1.00;;;;;;4955517;28;20188;-72
2020/12/19 02:56:35;;;;;;;11.10;7.90;;;7.60;1.00;;;;;;4943358;28;20302;-72
2020/12/19 02:59:01;;;;;;;11.33;6.80;;;7.60;1.00;;;;;;4966746;28;20192;-72
2020/12/19 03:01:29;;;;;;;11.43;7.60;;;7.60;1.00;;;;;;4964939;28;20210;-72
2020/12/19 03:03:54;;;;;;;11.93;7.23;;;7.60;1.00;;;;;;4962954;28;20795;-72
2020/12/19 03:06:20;;;;;;;9.40;7.30;;;7.50;1.00;;;;;;4959729;28;20453;-72
2020/12/19 03:08:46;;;;;;;9.27;6.57;;;7.50;1.00;;;;;;4966070;28;20220;-72
2020/12/19 03:11:12;;;;;;;9.47;7.20;;;7.50;1.00;;;;;;4968531;28;20189;-72
2020/12/19 03:13:37;;;;;;;9.30;6.13;;;7.50;1.00;;;;;;4971613;28;20300;-72
2020/12/19 03:16:03;;;;;;;12.00;7.30;;;7.50;1.00;;;;;;4954753;28;20205;-73
2020/12/19 03:18:29;;;;;;;12.37;7.63;;;7.50;1.00;;;;;;4952045;28;20185;-72
2020/12/19 03:20:54;;;;;;;11.00;7.70;;;7.50;1.00;;;;;;4953506;28;20870;-72
2020/12/19 03:23:20;;;;;;;10.80;7.80;;;7.50;1.00;;;;;;4954836;28;20732;-72
2020/12/19 03:25:46;;;;;;;14.93;9.20;;;7.40;1.00;;;;;;4955745;28;21999;-72
2020/12/19 03:28:12;;;;;;;12.33;8.20;;;7.40;1.90;;;;;;4957478;28;20777;-72
2020/12/19 03:30:38;;;;;;;10.30;8.10;;;7.50;7.90;;;;;;4967959;28;20486;-72
2020/12/19 03:33:03;;;;;;;12.60;8.23;;;7.40;1.70;;;;;;4967932;28;20206;-72
2020/12/19 03:35:33;;;;;;;10.27;7.87;;;7.40;4.50;;;;;;4956671;28;20718;-72
2020/12/19 03:38:00;;;;;;;11.90;8.67;;;7.40;12.00;;;;;;4953966;28;20179;-72
2020/12/19 03:40:26;;;;;;;12.73;9.27;;;7.40;6.80;;;;;;4962374;28;20459;-72
2020/12/19 03:42:51;;;;;;;12.97;8.27;;;7.40;10.80;;;;;;4967687;28;20898;-72
2020/12/19 03:45:17;;;;;;;13.27;7.70;;;7.40;7.90;;;;;;4965654;28;20189;-72
2020/12/19 03:47:43;;;;;;;14.30;8.83;;;7.40;9.30;;;;;;4962899;28;20467;-72
2020/12/19 03:50:09;;;;;;;13.47;8.83;;;7.40;3.10;;;;;;4964968;28;20695;-72
2020/12/19 03:52:34;;;;;;;15.70;9.23;;;7.40;2.30;;;;;;4960818;28;20200;-72
2020/12/19 03:55:00;;;;;;;11.07;8.13;;;7.40;1.00;;;;;;4956595;28;20182;-72
2020/12/19 03:57:25;;;;;;;14.07;9.40;;;7.40;1.00;;;;;;4955038;28;20382;-71
2020/12/19 03:59:51;;;;;;;11.87;9.27;;;7.40;1.00;;;;;;4956263;28;20193;-72
2020/12/19 04:02:17;;;;;;;13.30;9.13;;;7.40;1.00;;;;;;4950625;28;20667;-72
2020/12/19 04:04:42;;;;;;;12.63;8.77;;;7.30;2.70;;;;;;4953691;28;20189;-72
2020/12/19 04:07:10;;;;;;;13.13;9.00;;;7.30;1.30;;;;;;4954013;28;20212;-72
2020/12/19 04:09:35;;;;;;;13.07;7.97;;;7.30;4.90;;;;;;4974239;28;20652;-72
2020/12/19 04:12:02;;;;;;;16.70;10.20;;;7.30;1.70;;;;;;4968067;28;20443;-72
2020/12/19 04:14:37;;;;;;;12.50;9.40;;;7.40;1.00;;;;;;4967740;28;20930;-72
2020/12/19 04:17:08;;;;;;;15.07;10.57;;;7.30;1.00;;;;;;4960788;28;20973;-72
2020/12/19 04:19:34;;;;;;;12.40;8.83;;;7.30;1.00;;;;;;4949942;28;20582;-72
2020/12/19 04:22:00;;;;;;;14.13;9.17;;;7.30;5.30;;;;;;4946321;28;20871;-72
2020/12/19 04:24:26;;;;;;;13.00;9.23;;;7.30;5.20;;;;;;4957889;28;20539;-72
2020/12/19 04:26:52;;;;;;;14.37;9.47;;;7.30;8.10;;;;;;4963814;28;20457;-71
2020/12/19 04:29:17;;;;;;;15.47;9.67;;;7.30;1.00;;;;;;4964195;28;20626;-72
2020/12/19 04:31:43;;;;;;;12.40;8.53;;;7.30;7.60;;;;;;4962852;28;20785;-72
2020/12/19 04:34:09;;;;;;;14.00;9.33;;;7.40;1.00;;;;;;4963861;28;20417;-73
2020/12/19 04:36:34;;;;;;;13.70;10.50;;;7.40;1.00;;;;;;4945106;28;20200;-72
2020/12/19 04:39:00;;;;;;;14.70;10.13;;;7.30;5.30;;;;;;4955755;28;20220;-73
2020/12/19 04:41:26;;;;;;;13.57;10.10;;;7.40;2.60;;;;;;4962441;28;20200;-72
2020/12/19 04:43:53;;;;;;;14.47;9.83;;;7.40;1.00;;;;;;4968554;28;20189;-72
2020/12/19 04:46:22;;;;;;;12.43;9.33;;;7.30;1.00;;;;;;4976403;28;20213;-73
2020/12/19 04:48:48;;;;;;;15.67;9.60;;;7.20;2.00;;;;;;4971261;28;20483;-72
2020/12/19 04:51:14;;;;;;;14.50;8.87;;;7.30;9.30;;;;;;4954174;28;21106;-72
2020/12/19 04:53:40;;;;;;;13.80;10.30;;;7.30;18.80;;;;;;4949123;28;20552;-72
2020/12/19 04:56:08;;;;;;;12.40;9.77;;;7.30;6.20;;;;;;4947710;28;20456;-72
2020/12/19 04:58:34;;;;;;;13.27;9.60;;;7.10;24.00;;;;;;4948944;28;20444;-71
2020/12/19 05:00:59;;;;;;;13.87;10.13;;;7.20;11.70;;;;;;4965473;28;21056;-72
2020/12/19 05:03:25;;;;;;;16.40;11.80;;;7.10;11.50;;;;;;4965695;28;20713;-71
2020/12/19 05:05:50;;;;;;;15.03;10.87;;;7.20;29.10;;;;;;4962009;28;20186;-72
2020/12/19 05:08:16;;;;;;;12.57;9.70;;;7.30;10.10;;;;;;4967704;28;20201;-72
2020/12/19 05:10:42;;;;;;;17.33;9.30;;;7.20;13.20;;;;;;4959161;28;20536;-71
2020/12/19 05:13:07;;;;;;;14.87;10.57;;;7.30;8.60;;;;;;4946478;28;20185;-71
2020/12/19 05:15:33;;;;;;;17.67;11.70;;;7.20;11.50;;;;;;4947769;28;20185;-71
2020/12/19 05:18:00;;;;;;;14.90;10.17;;;7.20;15.50;;;;;;4948147;28;20205;-71
2020/12/19 05:20:30;;;;;;;16.90;10.60;;;7.10;15.40;;;;;;4948248;28;20863;-72
2020/12/19 05:22:57;;;;;;;15.67;10.37;;;7.10;28.00;;;;;;4948318;28;20480;-71
2020/12/19 05:25:25;;;;;;;12.20;9.87;;;7.10;35.40;;;;;;4949308;28;20453;-71
2020/12/19 05:27:51;;;;;;;14.93;10.93;;;7.20;27.90;;;;;;4955721;28;21216;-72
2020/12/19 05:30:19;;;;;;;13.83;9.80;;;7.20;19.30;;;;;;4962884;28;20464;-71
2020/12/19 05:32:52;;;;;;;13.27;10.70;;;7.20;10.00;;;;;;4970978;28;20196;-71
2020/12/19 05:35:23;;;;;;;16.27;11.37;;;7.10;11.30;;;;;;4966786;28;20509;-71
2020/12/19 05:37:57;;;;;;;16.70;11.07;;;7.00;29.70;;;;;;4953588;28;20575;-71
2020/12/19 05:40:25;;;;;;;14.87;10.40;;;7.20;46.00;;;;;;4951100;28;21213;-71
2020/12/19 05:42:51;;;;;;;15.40;11.33;;;7.20;23.10;;;;;;4949121;28;20453;-72
2020/12/19 05:45:18;;;;;;;13.77;9.97;;;7.20;26.90;;;;;;4952310;28;20492;-71
2020/12/19 05:47:45;;;;;;;13.50;9.97;;;7.20;19.60;;;;;;4950232;28;20480;-71
2020/12/19 05:50:11;;;;;;;15.50;10.40;;;7.20;13.50;;;;;;4955213;28;20860;-72
2020/12/19 05:52:38;;;;;;;14.57;10.10;;;7.20;15.50;;;;;;4946802;28;20456;-71
2020/12/19 05:55:15;;;;;;;13.60;10.77;;;7.20;13.90;;;;;;4946462;28;21103;-72
2020/12/19 05:57:41;;;;;;;16.60;10.83;;;7.20;18.40;;;;;;4951308;28;20453;-71
2020/12/19 06:00:07;;;;;;;16.67;10.70;;;7.20;16.70;;;;;;4950575;28;20468;-72
2020/12/19 06:02:35;;;;;;;18.17;11.07;;;7.20;17.50;;;;;;4944772;28;21972;-71
2020/12/19 06:05:04;;;;;;;16.70;11.47;;;7.30;23.90;;;;;;4962183;28;20458;-72
2020/12/19 06:07:35;;;;;;;14.60;11.00;;;7.50;11.80;;;;;;4965351;28;20464;-71
2020/12/19 06:10:04;;;;;;;16.77;11.40;;;7.50;4.30;;;;;;4962819;28;20971;-72
2020/12/19 06:12:55;;;;;;;12.93;10.23;;;7.40;7.10;;;;;;4954346;28;20462;-71
2020/12/19 06:15:49;;;;;;;15.30;10.60;;;7.40;9.60;;;;;;4949372;28;21161;-71
2020/12/19 06:18:55;;;;;;;13.73;10.00;;;7.40;17.00;;;;;;4952953;28;20520;-71
2020/12/19 06:21:22;;;;;;;18.93;11.27;;;7.30;22.10;;;;;;4952751;28;20495;-71
2020/12/19 06:23:48;;;;;;;14.83;10.03;;;7.50;24.30;;;;;;4955323;28;20445;-71
2020/12/19 06:26:14;;;;;;;14.50;10.23;;;7.60;11.80;;;;;;4955697;28;20460;-72
2020/12/19 06:28:45;;;;;;;16.17;11.73;;;7.50;14.20;;;;;;4953674;28;20444;-72
2020/12/19 06:31:16;;;;;;;17.23;11.80;;;7.60;21.30;;;;;;4967703;28;20620;-72
2020/12/19 06:33:46;;;;;;;19.03;12.50;;;7.60;22.80;;;;;;4966610;28;20466;-71
2020/12/19 06:36:29;;;;;;;17.50;12.17;;;7.70;23.50;;;;;;4964627;28;20457;-71
2020/12/19 06:39:09;;;;;;;18.37;13.07;;;7.70;13.60;;;;;;4966258;28;20489;-72
2020/12/19 06:41:55;;;;;;;15.53;12.13;;;7.70;24.80;;;;;;4964585;28;20450;-71
2020/12/19 06:44:26;;;;;;;21.70;11.93;;;7.70;26.20;;;;;;4969959;28;20462;-71
2020/12/19 06:46:54;;;;;;;18.93;12.87;;;7.80;23.10;;;;;;4964797;28;20547;-71
2020/12/19 06:49:31;;;;;;;17.57;11.33;;;7.80;18.90;;;;;;4966410;28;20470;-71
2020/12/19 06:51:58;;;;;;;19.27;12.43;;;7.70;21.50;;;;;;4960555;28;20452;-72
2020/12/19 06:54:28;;;;;;;16.83;11.53;;;7.80;38.20;;;;;;4963100;28;21036;-70
2020/12/19 06:56:53;;;;;;;21.03;13.80;;;7.80;29.90;;;;;;4964559;28;20449;-71
2020/12/19 06:59:23;;;;;;;17.90;11.90;;;7.80;51.20;;;;;;4960015;28;20452;-72
2020/12/19 07:01:49;;;;;;;14.80;11.77;;;7.80;41.20;;;;;;4964885;28;20279;-71
2020/12/19 07:04:31;;;;;;;18.93;12.33;;;7.80;37.10;;;;;;4963583;28;20567;-71
2020/12/19 07:07:08;;;;;;;17.63;12.23;;;7.80;52.70;;;;;;4962625;28;20570;-71
2020/12/19 07:09:34;;;;;;;15.60;11.67;;;7.90;44.70;;;;;;4962084;28;20487;-71
2020/12/19 07:12:00;;;;;;;17.70;12.80;;;8.00;57.80;;;;;;4965052;28;20473;-72
2020/12/19 07:14:38;;;;;;;19.30;13.63;;;8.00;47.90;;;;;;4967291;28;20476;-71
2020/12/19 07:17:18;;;;;;;17.50;11.97;;;8.10;34.10;;;;;;4962632;28;20471;-72
2020/12/19 07:19:55;;;;;;;19.20;14.07;;;8.10;44.20;;;;;;4970960;28;20852;-71
2020/12/19 07:22:24;;;;;;;17.13;12.60;;;8.10;39.70;;;;;;4964706;28;21070;-71
2020/12/19 07:24:53;;;;;;;17.83;12.53;;;8.20;43.20;;;;;;4967017;28;20544;-71
2020/12/19 07:27:22;;;;;;;19.03;12.43;;;8.20;39.50;;;;;;4969280;28;20567;-71
2020/12/19 07:29:49;;;;;;;19.90;13.13;;;8.20;34.70;;;;;;4962165;28;20463;-71
2020/12/19 07:32:15;;;;;;;19.30;12.03;;;8.10;38.90;;;;;;4971883;28;20470;-71
2020/12/19 07:34:41;;;;;;;22.53;11.83;;;8.10;43.60;;;;;;4961536;28;20885;-72
2020/12/19 07:37:07;;;;;;;19.47;13.30;;;8.20;41.20;;;;;;4970518;28;20449;-72
2020/12/19 07:39:33;;;;;;;14.60;10.70;;;8.20;34.80;;;;;;4960882;28;20198;-71
2020/12/19 07:42:10;;;;;;;16.97;11.90;;;8.20;37.90;;;;;;4963441;28;20804;-72
2020/12/19 07:44:37;;;;;;;16.30;11.97;;;8.30;25.80;;;;;;4963757;28;20604;-71
2020/12/19 07:47:07;;;;;;;22.60;11.87;;;8.30;24.40;;;;;;4970061;28;20449;-72
2020/12/19 07:49:37;;;;;;;14.47;11.83;;;8.30;24.50;;;;;;4962826;28;21556;-71
2020/12/19 07:52:04;;;;;;;17.03;11.03;;;8.30;22.60;;;;;;4956425;28;20469;-72
2020/12/19 07:54:29;;;;;;;15.80;11.33;;;8.30;22.20;;;;;;4962916;28;20444;-72
2020/12/19 07:56:56;;;;;;;18.33;12.00;;;8.20;23.40;;;;;;4971323;28;21050;-71
2020/12/19 07:59:21;;;;;;;16.13;12.10;;;8.30;21.20;;;;;;4966395;28;20177;-72
2020/12/19 08:01:47;;;;;;;16.67;11.83;;;8.40;20.10;;;;;;4972295;28;20930;-72
2020/12/19 08:04:13;;;;;;;15.17;11.50;;;8.40;7.20;;;;;;4975736;28;20212;-72
2020/12/19 08:06:47;;;;;;;16.43;11.27;;;8.40;8.30;;;;;;4968347;28;20204;-71
2020/12/19 08:09:22;;;;;;;16.93;10.37;;;8.40;6.40;;;;;;4960099;28;20275;-72
2020/12/19 08:11:50;;;;;;;14.57;11.40;;;8.30;10.60;;;;;;4956534;28;20513;-72
2020/12/19 08:14:20;;;;;;;15.20;10.37;;;8.40;5.40;;;;;;4965642;28;20448;-72
2020/12/19 08:16:46;;;;;;;13.37;10.20;;;8.30;7.40;;;;;;4963744;28;20471;-72
2020/12/19 08:19:17;;;;;;;18.60;10.93;;;8.30;8.50;;;;;;4963233;28;20469;-71
2020/12/19 08:21:47;;;;;;;13.47;10.13;;;8.20;10.30;;;;;;4970216;28;20953;-72
2020/12/19 08:24:12;;;;;;;13.47;9.47;;;8.30;8.20;;;;;;4958454;28;20963;-72
2020/12/19 08:26:38;;;;;;;16.30;11.20;;;8.40;5.30;;;;;;4962667;28;20445;-71
2020/12/19 08:29:08;;;;;;;16.23;10.77;;;8.40;2.80;;;;;;4959602;28;21455;-71
2020/12/19 08:31:37;;;;;;;14.67;10.47;;;8.50;1.00;;;;;;4962010;28;20658;-71
2020/12/19 08:34:11;;;;;;;14.80;11.00;;;8.50;1.00;;;;;;4965797;28;20461;-71
2020/12/19 08:36:44;;;;;;;13.10;10.50;;;8.50;1.00;;;;;;4967664;28;20531;-72
2020/12/19 08:39:17;;;;;;;12.80;10.13;;;8.60;1.00;;;;;;4976992;28;20808;-71
2020/12/19 08:41:44;;;;;;;17.53;10.13;;;8.50;1.00;;;;;;4963276;28;20651;-72
2020/12/19 08:44:23;;;;;;;14.73;11.60;;;8.50;1.00;;;;;;4961336;28;20464;-72
2020/12/19 08:47:03;;;;;;;15.63;10.60;;;8.60;1.00;;;;;;4961936;28;20445;-72
2020/12/19 08:49:29;;;;;;;14.63;10.70;;;8.60;1.00;;;;;;4967295;28;20518;-72
2020/12/19 08:51:56;;;;;;;13.60;10.23;;;8.60;1.00;;;;;;4962098;28;20501;-72
2020/12/19 08:54:22;;;;;;;16.23;10.03;;;8.60;1.00;;;;;;4970173;28;20784;-71
2020/12/19 08:56:50;;;;;;;13.07;9.97;;;8.70;1.00;;;;;;4965027;28;20441;-72
2020/12/19 08:59:28;;;;;;;13.57;9.57;;;8.70;1.00;;;;;;4967350;28;20455;-71
2020/12/19 09:01:56;;;;;;;15.17;9.00;;;8.70;1.00;;;;;;4962708;28;20463;-72
2020/12/19 09:04:22;;;;;;;16.90;9.97;;;8.80;1.00;;;;;;4964991;28;20463;-72
2020/12/19 09:06:50;;;;;;;14.13;9.17;;;8.80;1.00;;;;;;4958204;28;20448;-72
2020/12/19 09:09:29;;;;;;;15.07;9.97;;;8.80;1.00;;;;;;4964148;28;20578;-71
2020/12/19 09:12:08;;;;;;;17.00;9.53;;;8.80;1.00;;;;;;4962800;28;20595;-72
2020/12/19 09:14:33;;;;;;;15.60;9.43;;;8.90;1.00;;;;;;4967276;28;20536;-72
2020/12/19 09:16:59;;;;;;;11.10;8.80;;;9.00;1.00;;;;;;4966372;28;21606;-72
2020/12/19 09:19:25;;;;;;;15.50;9.17;;;9.00;1.00;;;;;;4971514;28;20229;-71
2020/12/19 09:21:58;;;;;;;15.20;9.27;;;9.00;1.00;;;;;;4965678;28;20288;-72
2020/12/19 09:24:25;;;;;;;12.40;9.83;;;9.00;1.00;;;;;;4969148;28;20239;-72
2020/12/19 09:26:51;;;;;;;13.63;8.77;;;9.00;1.00;;;;;;4965633;28;20471;-71
2020/12/19 09:29:17;;;;;;;15.47;9.80;;;9.00;1.00;;;;;;4966975;28;20471;-71
2020/12/19 09:31:43;;;;;;;11.83;8.20;;;9.10;1.00;;;;;;4964160;28;20320;-72
2020/12/19 09:34:09;;;;;;;11.90;9.20;;;9.10;1.00;;;;;;4957515;28;20476;-72
2020/12/19 09:36:35;;;;;;;18.83;10.23;;;9.10;1.00;;;;;;4951651;28;20446;-72
2020/12/19 09:39:01;;;;;;;14.93;9.30;;;9.20;1.00;;;;;;4968726;28;20246;-72
2020/12/19 09:41:27;;;;;;;15.67;10.60;;;9.20;1.00;;;;;;4968612;28;20456;-72
2020/12/19 09:43:52;;;;;;;11.30;8.67;;;9.30;1.00;;;;;;4963154;28;20583;-72
2020/12/19 09:46:18;;;;;;;11.20;8.00;;;9.30;1.00;;;;;;4957262;28;20599;-72
2020/12/19 09:48:44;;;;;;;12.70;8.30;;;9.30;1.00;;;;;;4944023;28;20738;-71
2020/12/19 09:51:09;;;;;;;12.00;7.97;;;9.40;1.00;;;;;;4950143;28;21918;-71
2020/12/19 09:53:36;;;;;;;10.83;7.60;;;9.40;1.00;;;;;;4950840;28;20189;-72
2020/12/19 09:56:02;;;;;;;10.73;7.50;;;9.50;1.00;;;;;;4967502;28;20188;-71
2020/12/19 09:58:28;;;;;;;13.43;8.40;;;9.50;1.00;;;;;;4951963;28;20523;-71
2020/12/19 10:00:53;;;;;;;9.27;7.33;;;9.60;1.00;;;;;;4946243;28;21469;-72
2020/12/19 10:03:19;;;;;;;9.87;8.23;;;9.60;1.00;;;;;;4958488;28;20295;-72
2020/12/19 10:05:45;;;;;;;9.33;7.43;;;9.70;1.00;;;;;;4952424;28;20853;-72
2020/12/19 10:08:11;;;;;;;10.43;7.77;;;9.70;1.00;;;;;;4954413;28;20206;-71
2020/12/19 10:10:36;;;;;;;12.27;7.60;;;9.70;1.00;;;;;;4951267;28;20550;-71
2020/12/19 10:13:02;;;;;;;9.53;7.33;;;9.80;1.00;;;;;;4969280;28;20930;-71
2020/12/19 10:15:28;;;;;;;9.57;7.97;;;9.90;1.00;;;;;;4958996;28;20184;-72
2020/12/19 10:17:54;;;;;;;10.23;7.63;;;9.80;1.00;;;;;;4952393;28;20445;-72
2020/12/19 10:20:20;;;;;;;12.13;7.60;;;9.90;1.00;;;;;;4961597;28;20184;-72
2020/12/19 10:22:48;;;;;;;10.63;7.43;;;9.90;1.00;;;;;;4949834;28;20690;-71
2020/12/19 10:25:14;;;;;;;10.60;7.90;;;10.00;1.00;;;;;;4947677;28;20586;-71
2020/12/19 10:27:40;;;;;;;11.83;6.30;;;10.00;1.00;;;;;;4962607;28;20464;-72
2020/12/19 10:30:05;;;;;;;8.67;6.87;;;10.00;1.00;;;;;;4970092;28;20262;-72
2020/12/19 10:32:31;;;;;;;9.27;6.07;;;10.10;1.00;;;;;;4954882;28;21706;-72
2020/12/19 10:34:57;;;;;;;8.77;6.00;;;10.10;1.00;;;;;;4947375;28;20194;-72
2020/12/19 10:37:23;;;;;;;11.60;7.27;;;10.10;1.00;;;;;;4959462;28;20644;-72
2020/12/19 10:39:49;;;;;;;11.23;6.20;;;10.20;1.00;;;;;;4968383;28;20509;-72
2020/12/19 10:42:14;;;;;;;10.13;5.97;;;10.30;1.00;;;;;;4965175;28;20196;-71
2020/12/19 10:44:41;;;;;;;8.43;6.60;;;10.30;1.00;;;;;;4967540;28;21012;-72
2020/12/19 10:47:06;;;;;;;7.70;5.90;;;10.30;1.00;;;;;;4961841;28;20201;-72
2020/12/19 10:49:32;;;;;;;8.90;5.97;;;10.30;1.00;;;;;;4960169;28;20670;-71
2020/12/19 10:52:02;;;;;;;9.53;6.30;;;10.40;1.00;;;;;;4964500;28;20189;-72
2020/12/19 10:54:28;;;;;;;7.20;6.17;;;10.50;1.00;;;;;;4964944;28;20280;-72
2020/12/19 10:56:54;;;;;;;7.50;5.90;;;10.50;1.00;;;;;;4963925;28;20748;-71
2020/12/19 10:59:20;;;;;;;10.40;5.73;;;10.60;1.00;;;;;;4967382;28;20204;-72
2020/12/19 11:01:46;;;;;;;11.27;6.60;;;10.60;1.00;;;;;;4962969;28;20904;-72
2020/12/19 11:04:12;;;;;;;14.10;6.27;;;10.70;1.00;;;;;;4960775;28;20471;-72
2020/12/19 11:06:38;;;;;;;8.93;5.83;;;10.70;1.00;;;;;;4962690;28;20567;-72
2020/12/19 11:09:04;;;;;;;8.57;5.70;;;10.80;1.00;;;;;;4964967;28;21017;-72
2020/12/19 11:11:29;;;;;;;7.63;5.80;;;10.80;1.00;;;;;;4971125;28;20174;-73
2020/12/19 11:13:56;;;;;;;7.77;5.53;;;10.90;1.00;;;;;;4963875;28;20666;-72
2020/12/19 11:16:29;;;;;;;9.10;6.03;;;10.90;1.00;;;;;;4961277;28;20560;-71
2020/12/19 11:18:56;;;;;;;7.67;5.50;;;10.90;1.00;;;;;;4961132;28;20811;-72
2020/12/19 11:21:22;;;;;;;12.47;5.93;;;10.90;1.00;;;;;;4955285;28;21056;-72
2020/12/19 11:23:48;;;;;;;9.10;5.77;;;11.00;1.00;;;;;;4957806;28;20444;-73
2020/12/19 11:26:19;;;;;;;5.80;4.83;;;11.10;1.00;;;;;;4935456;28;22338;-72
2020/12/19 11:28:48;;;;;;;7.23;4.60;;;11.10;1.00;;;;;;4949399;28;20566;-72
2020/12/19 11:31:14;;;;;;;7.37;4.93;;;11.20;1.00;;;;;;4963399;28;20714;-73
2020/12/19 11:33:40;;;;;;;8.53;5.30;;;11.20;1.00;;;;;;4971424;28;20784;-74
2020/12/19 11:36:06;;;;;;;8.27;4.57;;;11.20;1.00;;;;;;4967287;28;21096;-73
2020/12/19 11:38:31;;;;;;;5.73;5.07;;;11.20;1.00;;;;;;4967695;28;20189;-73
2020/12/19 11:40:57;;;;;;;6.97;4.70;;;11.30;1.00;;;;;;4984028;28;20220;-74
2020/12/19 11:43:23;;;;;;;4.77;4.27;;;11.30;1.00;;;;;;4958279;28;20556;-73
2020/12/19 11:45:49;;;;;;;5.97;4.77;;;11.40;1.00;;;;;;4941676;28;20296;-73
2020/12/19 11:48:15;;;;;;;7.00;4.70;;;11.50;1.00;;;;;;4950639;28;20654;-74
2020/12/19 11:50:41;;;;;;;6.77;5.20;;;11.40;1.00;;;;;;4943743;28;20221;-73
2020/12/19 11:53:06;;;;;;;4.70;4.10;;;11.40;1.00;;;;;;4949143;28;20474;-74
2020/12/19 11:55:32;;;;;;;6.73;3.73;;;11.40;1.00;;;;;;4948756;28;20890;-73
2020/12/19 11:57:58;;;;;;;5.90;3.70;;;11.30;1.00;;;;;;4944960;28;20295;-74
2020/12/19 12:00:23;;;;;;;5.73;4.43;;;11.30;1.00;;;;;;4944766;28;20216;-74
2020/12/19 12:02:49;;;;;;;6.47;4.13;;;11.20;1.00;;;;;;4944237;28;20193;-74
2020/12/19 12:05:15;;;;;;;4.83;4.43;;;11.20;1.00;;;;;;4951552;28;20194;-73
2020/12/19 12:07:41;;;;;;;7.17;4.43;;;11.10;1.00;;;;;;4953529;28;21428;-73
2020/12/19 12:10:06;;;;;;;8.87;5.10;;;11.10;1.00;;;;;;4952156;28;20559;-73
2020/12/19 12:12:32;;;;;;;4.50;3.57;;;11.00;1.00;;;;;;4945184;28;20202;-73
2020/12/19 12:14:58;;;;;;;4.60;3.60;;;11.10;1.00;;;;;;4949176;28;20185;-74
2020/12/19 12:17:23;;;;;;;5.70;4.47;;;11.10;1.00;;;;;;4952655;28;20200;-73
2020/12/19 12:19:49;;;;;;;5.23;3.60;;;11.10;1.00;;;;;;4947877;28;20236;-74
2020/12/19 12:22:15;;;;;;;4.93;3.00;;;11.30;1.00;;;;;;4947590;28;20220;-73
2020/12/19 12:24:40;;;;;;;5.53;3.53;;;11.40;1.00;;;;;;4953957;28;20185;-73
2020/12/19 12:27:06;;;;;;;5.20;3.60;;;11.40;1.00;;;;;;4949214;28;20627;-74
2020/12/19 12:29:32;;;;;;;4.00;3.23;;;11.40;1.00;;;;;;4953578;28;20689;-74
2020/12/19 12:31:57;;;;;;;6.50;3.70;;;11.40;1.00;;;;;;4949518;28;20185;-73
2020/12/19 12:34:23;;;;;;;8.50;3.90;;;11.50;1.00;;;;;;4944388;28;20219;-73
2020/12/19 12:36:49;;;;;;;5.20;3.23;;;11.50;1.00;;;;;;4946393;28;21151;-74
2020/12/19 12:39:14;;;;;;;5.20;3.63;;;11.60;1.00;;;;;;4950106;28;20675;-74
2020/12/19 12:41:45;;;;;;;5.97;4.13;;;11.70;1.00;;;;;;4947384;28;20204;-73
2020/12/19 12:44:11;;;;;;;6.23;3.60;;;11.60;1.00;;;;;;4943436;28;20213;-74
2020/12/19 12:46:36;;;;;;;5.17;3.77;;;11.50;1.00;;;;;;4945688;28;20468;-74
2020/12/19 12:49:02;;;;;;;4.43;4.03;;;11.50;1.00;;;;;;4952915;28;20200;-74
2020/12/19 12:51:28;;;;;;;5.23;3.53;;;11.40;1.00;;;;;;4948369;28;20813;-73
2020/12/19 12:53:53;;;;;;;4.47;3.27;;;11.50;1.00;;;;;;4953578;28;20233;-74
2020/12/19 12:56:23;;;;;;;5.23;3.50;;;11.60;1.00;;;;;;4943160;28;21702;-74